Fredonia, New York
Current Conditions -  °F | °C
As of 11:53 PM on Monday 20 Oct 2014 (Local Time) from KDKK Reporting Station
Light Rain Light Rain  
Wind Chill: 50°   Ceiling: 4300
Heat Index: 50°   Visibility: 10mi
Dew Point: 48°   Wind: 13mph
Humidity: 93%   Direction: 200°SSW
Pressure: 29.8"   Gusts: 24mph
Location:  42.44°N, 79.33°W
Report Text: KDKK 210353Z AUTO 20011G21KT 10SM -RA SCT027 BKN043 OVC050 10/09 A2980 RMK AO2 SLP094 P0002 T01000089
Loading
Personal Weather Stations






























Interactive Weather Map
Tropical Storm Tracking
New forecast layout! Learn more

10-Day Weather Forecast

Advertisements
Track Severe Weather on mobile